メインページ
METAR-TAF:

METAR-TAF

空港 :

モスクワ-シェレメーチエヴォ, ロシア

シェレメーチエヴォ国際空港

緯度: 55-59N, 経度: 037-30E, 海抜: 190m

現時点の気象観測

当レポートは44分前の01:30(UTC)に作成
西の風 14kt
気温 -9°C
湿度 85%
気圧 1009 hPa
視程: 9000m
高度1200ftの曇り

METAR: UUEE 220130Z 27007MPS 9000 OVC012 M09/M11 Q1009 R24L/490337 NOSIG

時間: 05:14 (02:14 UTC)

予報

当レポートは3時間14分前の23:00(UTC)に作成
予報は22日の 00時(UTC)から 22日の 24時(UTC)まで有効
西/北西の風 10kt
視程: 6000m
高度1100ftの千切れ雲あり
22日の 00時(UTC)から 22日の 21時(UTC)まで一時的に
小雪
22日の 01時(UTC)から 22日の 05時(UTC)まで徐々に
西の風 10kt
22日の 12時(UTC)から 22日の 16時(UTC)まで徐々に
南西の風 8kt

TAF: UUEE 212300Z 2200/2224 29005MPS 6000 BKN011 TXM07/2200Z TNM11/2206Z TEMPO 2200/2221 -SN BECMG 2201/2205 26005MPS BECMG 2212/2216 22004MPS

4,000以上の空港の気象観測と天気予報(METAR報とTAF報)

利用可能な観測所は地図上に黄色い丸と赤い丸で示す。

丸の上にカーソルを重ねると観測所名を参照できる。

次にクリックすると気象観測と天気予報を参照できる。

マップの切り替え:黒色「×」印の緑ボタンをクリックして拡大、「-」印の緑ボタンをクリックして縮小、緑色の三角印をクリックして隣りの地図に切り替え


METAR-TAF: